sensor_id;sensor_type;location;lat;lon;timestamp;P1;durP1;ratioP1;P2;durP2;ratioP2
16784;SDS011;8509;52.178;5.404;2023-08-30T00:01:07;3.42;;;1.80;;
16784;SDS011;8509;52.178;5.404;2023-08-30T00:03:33;2.05;;;1.48;;
16784;SDS011;8509;52.178;5.404;2023-08-30T00:06:03;3.75;;;1.92;;
16784;SDS011;8509;52.178;5.404;2023-08-30T00:08:29;2.80;;;1.40;;
16784;SDS011;8509;52.178;5.404;2023-08-30T00:10:55;3.45;;;1.70;;
16784;SDS011;8509;52.178;5.404;2023-08-30T00:13:23;2.17;;;1.73;;
16784;SDS011;8509;52.178;5.404;2023-08-30T00:15:54;2.53;;;1.60;;
16784;SDS011;8509;52.178;5.404;2023-08-30T00:18:20;2.28;;;1.65;;
16784;SDS011;8509;52.178;5.404;2023-08-30T00:20:46;3.08;;;2.25;;
16784;SDS011;8509;52.178;5.404;2023-08-30T00:23:12;3.58;;;2.20;;
16784;SDS011;8509;52.178;5.404;2023-08-30T00:25:38;3.40;;;2.15;;
16784;SDS011;8509;52.178;5.404;2023-08-30T00:28:03;3.92;;;1.95;;
16784;SDS011;8509;52.178;5.404;2023-08-30T00:30:29;1.80;;;1.60;;
16784;SDS011;8509;52.178;5.404;2023-08-30T00:32:55;3.15;;;2.25;;
16784;SDS011;8509;52.178;5.404;2023-08-30T00:35:21;4.85;;;2.40;;
16784;SDS011;8509;52.178;5.404;2023-08-30T00:37:46;2.63;;;1.80;;
16784;SDS011;8509;52.178;5.404;2023-08-30T00:40:12;6.15;;;2.28;;
16784;SDS011;8509;52.178;5.404;2023-08-30T00:42:37;5.35;;;2.45;;
16784;SDS011;8509;52.178;5.404;2023-08-30T00:45:05;3.05;;;1.73;;
16784;SDS011;8509;52.178;5.404;2023-08-30T00:47:32;3.38;;;2.60;;
16784;SDS011;8509;52.178;5.404;2023-08-30T00:49:58;9.35;;;2.88;;
16784;SDS011;8509;52.178;5.404;2023-08-30T00:52:23;4.10;;;2.67;;
16784;SDS011;8509;52.178;5.404;2023-08-30T00:54:49;4.80;;;2.75;;
16784;SDS011;8509;52.178;5.404;2023-08-30T00:57:15;4.40;;;2.53;;
16784;SDS011;8509;52.178;5.404;2023-08-30T00:59:41;3.72;;;2.22;;
16784;SDS011;8509;52.178;5.404;2023-08-30T01:02:07;6.18;;;2.30;;
16784;SDS011;8509;52.178;5.404;2023-08-30T01:04:33;5.38;;;2.75;;
16784;SDS011;8509;52.178;5.404;2023-08-30T01:07:00;3.78;;;2.17;;
16784;SDS011;8509;52.178;5.404;2023-08-30T01:09:26;3.10;;;1.85;;
16784;SDS011;8509;52.178;5.404;2023-08-30T01:17:34;5.03;;;2.25;;
16784;SDS011;8509;52.178;5.404;2023-08-30T01:20:01;4.25;;;2.08;;
16784;SDS011;8509;52.178;5.404;2023-08-30T01:25:39;2.20;;;1.73;;
16784;SDS011;8509;52.178;5.404;2023-08-30T01:28:33;6.85;;;2.65;;
16784;SDS011;8509;52.178;5.404;2023-08-30T01:31:00;5.57;;;2.15;;
16784;SDS011;8509;52.178;5.404;2023-08-30T01:33:28;4.43;;;2.55;;
16784;SDS011;8509;52.178;5.404;2023-08-30T01:35:56;3.78;;;2.10;;
16784;SDS011;8509;52.178;5.404;2023-08-30T01:38:23;3.90;;;2.13;;
16784;SDS011;8509;52.178;5.404;2023-08-30T01:40:51;3.33;;;1.85;;
16784;SDS011;8509;52.178;5.404;2023-08-30T01:43:19;3.88;;;2.38;;
16784;SDS011;8509;52.178;5.404;2023-08-30T01:45:47;4.07;;;2.20;;
16784;SDS011;8509;52.178;5.404;2023-08-30T01:48:16;5.43;;;2.58;;
16784;SDS011;8509;52.178;5.404;2023-08-30T01:50:43;3.53;;;2.30;;
16784;SDS011;8509;52.178;5.404;2023-08-30T01:53:11;4.38;;;2.53;;
16784;SDS011;8509;52.178;5.404;2023-08-30T01:55:37;6.40;;;2.97;;
16784;SDS011;8509;52.178;5.404;2023-08-30T01:58:05;5.13;;;2.13;;
16784;SDS011;8509;52.178;5.404;2023-08-30T02:00:31;5.20;;;2.50;;
16784;SDS011;8509;52.178;5.404;2023-08-30T02:02:57;4.38;;;2.40;;
16784;SDS011;8509;52.178;5.404;2023-08-30T02:05:23;4.15;;;2.25;;
16784;SDS011;8509;52.178;5.404;2023-08-30T02:07:51;5.05;;;2.40;;
16784;SDS011;8509;52.178;5.404;2023-08-30T02:10:24;3.15;;;2.15;;
16784;SDS011;8509;52.178;5.404;2023-08-30T02:12:56;3.30;;;2.15;;
16784;SDS011;8509;52.178;5.404;2023-08-30T02:15:24;3.13;;;2.28;;
16784;SDS011;8509;52.178;5.404;2023-08-30T02:17:52;2.50;;;1.70;;
16784;SDS011;8509;52.178;5.404;2023-08-30T02:20:18;3.83;;;2.55;;
16784;SDS011;8509;52.178;5.404;2023-08-30T02:22:44;4.93;;;2.58;;
16784;SDS011;8509;52.178;5.404;2023-08-30T02:25:10;6.72;;;3.55;;
16784;SDS011;8509;52.178;5.404;2023-08-30T02:27:36;4.00;;;2.47;;
16784;SDS011;8509;52.178;5.404;2023-08-30T02:30:02;3.72;;;2.42;;
16784;SDS011;8509;52.178;5.404;2023-08-30T02:32:28;4.82;;;2.83;;
16784;SDS011;8509;52.178;5.404;2023-08-30T02:34:55;4.40;;;2.28;;
16784;SDS011;8509;52.178;5.404;2023-08-30T02:37:21;4.75;;;2.63;;
16784;SDS011;8509;52.178;5.404;2023-08-30T02:39:47;8.55;;;3.53;;
16784;SDS011;8509;52.178;5.404;2023-08-30T02:42:13;4.65;;;2.60;;
16784;SDS011;8509;52.178;5.404;2023-08-30T02:44:39;5.53;;;3.72;;
16784;SDS011;8509;52.178;5.404;2023-08-30T02:47:05;4.00;;;2.58;;
16784;SDS011;8509;52.178;5.404;2023-08-30T02:49:30;4.00;;;2.05;;
16784;SDS011;8509;52.178;5.404;2023-08-30T02:51:56;4.43;;;2.67;;
16784;SDS011;8509;52.178;5.404;2023-08-30T02:54:22;3.78;;;2.55;;
16784;SDS011;8509;52.178;5.404;2023-08-30T02:56:48;5.85;;;2.90;;
16784;SDS011;8509;52.178;5.404;2023-08-30T02:59:14;6.40;;;3.50;;
16784;SDS011;8509;52.178;5.404;2023-08-30T03:01:39;6.35;;;3.28;;
16784;SDS011;8509;52.178;5.404;2023-08-30T03:04:05;5.10;;;2.92;;
16784;SDS011;8509;52.178;5.404;2023-08-30T03:06:32;5.85;;;3.45;;
16784;SDS011;8509;52.178;5.404;2023-08-30T03:08:58;5.60;;;3.20;;
16784;SDS011;8509;52.178;5.404;2023-08-30T03:11:24;5.72;;;3.33;;
16784;SDS011;8509;52.178;5.404;2023-08-30T03:13:50;5.75;;;3.47;;
16784;SDS011;8509;52.178;5.404;2023-08-30T03:16:16;4.57;;;3.00;;
16784;SDS011;8509;52.178;5.404;2023-08-30T03:18:42;6.32;;;3.30;;
16784;SDS011;8509;52.178;5.404;2023-08-30T03:21:09;5.82;;;3.25;;
16784;SDS011;8509;52.178;5.404;2023-08-30T03:23:35;5.68;;;3.25;;
16784;SDS011;8509;52.178;5.404;2023-08-30T03:26:08;5.53;;;3.10;;
16784;SDS011;8509;52.178;5.404;2023-08-30T03:28:34;7.20;;;3.45;;
16784;SDS011;8509;52.178;5.404;2023-08-30T03:31:02;6.47;;;3.45;;
16784;SDS011;8509;52.178;5.404;2023-08-30T03:33:27;5.15;;;2.80;;
16784;SDS011;8509;52.178;5.404;2023-08-30T03:35:53;7.35;;;3.13;;
16784;SDS011;8509;52.178;5.404;2023-08-30T03:38:18;5.18;;;2.92;;
16784;SDS011;8509;52.178;5.404;2023-08-30T03:40:44;6.60;;;3.10;;
16784;SDS011;8509;52.178;5.404;2023-08-30T03:43:10;6.85;;;4.10;;
16784;SDS011;8509;52.178;5.404;2023-08-30T03:45:36;5.65;;;3.53;;
16784;SDS011;8509;52.178;5.404;2023-08-30T03:48:02;5.22;;;3.15;;
16784;SDS011;8509;52.178;5.404;2023-08-30T03:50:29;6.60;;;3.53;;
16784;SDS011;8509;52.178;5.404;2023-08-30T03:52:54;7.28;;;3.58;;
16784;SDS011;8509;52.178;5.404;2023-08-30T03:55:21;6.93;;;3.17;;
16784;SDS011;8509;52.178;5.404;2023-08-30T03:57:48;6.63;;;3.17;;
16784;SDS011;8509;52.178;5.404;2023-08-30T04:00:13;5.22;;;3.70;;
16784;SDS011;8509;52.178;5.404;2023-08-30T04:02:39;8.05;;;3.60;;
16784;SDS011;8509;52.178;5.404;2023-08-30T04:05:05;7.20;;;3.40;;
16784;SDS011;8509;52.178;5.404;2023-08-30T04:07:34;9.18;;;4.03;;
16784;SDS011;8509;52.178;5.404;2023-08-30T04:10:02;10.15;;;3.95;;
16784;SDS011;8509;52.178;5.404;2023-08-30T04:12:31;6.45;;;3.50;;
16784;SDS011;8509;52.178;5.404;2023-08-30T04:14:57;6.10;;;4.00;;
16784;SDS011;8509;52.178;5.404;2023-08-30T04:17:23;5.25;;;3.13;;
16784;SDS011;8509;52.178;5.404;2023-08-30T04:19:51;7.80;;;3.00;;
16784;SDS011;8509;52.178;5.404;2023-08-30T04:22:17;9.23;;;4.00;;
16784;SDS011;8509;52.178;5.404;2023-08-30T04:24:43;5.53;;;3.10;;
16784;SDS011;8509;52.178;5.404;2023-08-30T04:27:10;6.22;;;3.72;;
16784;SDS011;8509;52.178;5.404;2023-08-30T04:29:36;6.97;;;3.80;;
16784;SDS011;8509;52.178;5.404;2023-08-30T04:32:01;8.90;;;3.33;;
16784;SDS011;8509;52.178;5.404;2023-08-30T04:34:27;9.50;;;4.30;;
16784;SDS011;8509;52.178;5.404;2023-08-30T04:36:54;7.03;;;3.58;;
16784;SDS011;8509;52.178;5.404;2023-08-30T04:39:19;6.35;;;3.47;;
16784;SDS011;8509;52.178;5.404;2023-08-30T04:41:45;6.85;;;4.18;;
16784;SDS011;8509;52.178;5.404;2023-08-30T04:44:11;7.85;;;3.38;;
16784;SDS011;8509;52.178;5.404;2023-08-30T04:46:36;7.93;;;4.15;;
16784;SDS011;8509;52.178;5.404;2023-08-30T04:49:02;6.47;;;3.55;;
16784;SDS011;8509;52.178;5.404;2023-08-30T04:51:28;8.05;;;4.28;;
16784;SDS011;8509;52.178;5.404;2023-08-30T04:53:54;7.13;;;4.38;;
16784;SDS011;8509;52.178;5.404;2023-08-30T04:56:19;6.90;;;4.25;;
16784;SDS011;8509;52.178;5.404;2023-08-30T04:58:45;9.15;;;3.50;;
16784;SDS011;8509;52.178;5.404;2023-08-30T05:01:11;6.50;;;3.20;;
16784;SDS011;8509;52.178;5.404;2023-08-30T05:03:39;7.75;;;3.40;;
16784;SDS011;8509;52.178;5.404;2023-08-30T05:06:06;7.40;;;3.53;;
16784;SDS011;8509;52.178;5.404;2023-08-30T05:08:32;11.57;;;3.83;;
16784;SDS011;8509;52.178;5.404;2023-08-30T05:10:57;9.15;;;4.30;;
16784;SDS011;8509;52.178;5.404;2023-08-30T05:13:23;6.97;;;3.70;;
16784;SDS011;8509;52.178;5.404;2023-08-30T05:15:49;8.30;;;3.90;;
16784;SDS011;8509;52.178;5.404;2023-08-30T05:18:16;4.25;;;2.45;;
16784;SDS011;8509;52.178;5.404;2023-08-30T05:20:44;4.60;;;2.55;;
16784;SDS011;8509;52.178;5.404;2023-08-30T05:23:09;5.95;;;3.40;;
16784;SDS011;8509;52.178;5.404;2023-08-30T05:25:35;9.93;;;4.18;;
16784;SDS011;8509;52.178;5.404;2023-08-30T05:28:01;5.85;;;3.78;;
16784;SDS011;8509;52.178;5.404;2023-08-30T05:30:26;8.70;;;3.58;;
16784;SDS011;8509;52.178;5.404;2023-08-30T05:32:52;6.65;;;4.05;;
16784;SDS011;8509;52.178;5.404;2023-08-30T05:35:18;6.97;;;3.90;;
16784;SDS011;8509;52.178;5.404;2023-08-30T05:37:43;9.88;;;3.63;;
16784;SDS011;8509;52.178;5.404;2023-08-30T05:40:09;8.32;;;3.70;;
16784;SDS011;8509;52.178;5.404;2023-08-30T05:42:35;8.88;;;3.97;;
16784;SDS011;8509;52.178;5.404;2023-08-30T05:45:01;7.45;;;4.25;;
16784;SDS011;8509;52.178;5.404;2023-08-30T05:47:28;8.95;;;4.22;;
16784;SDS011;8509;52.178;5.404;2023-08-30T05:49:54;5.68;;;3.50;;
16784;SDS011;8509;52.178;5.404;2023-08-30T05:52:19;6.32;;;3.30;;
16784;SDS011;8509;52.178;5.404;2023-08-30T05:54:45;7.20;;;4.05;;
16784;SDS011;8509;52.178;5.404;2023-08-30T05:57:11;10.07;;;4.25;;
16784;SDS011;8509;52.178;5.404;2023-08-30T05:59:37;5.25;;;3.67;;
16784;SDS011;8509;52.178;5.404;2023-08-30T06:02:03;7.13;;;3.53;;
16784;SDS011;8509;52.178;5.404;2023-08-30T06:04:29;12.30;;;4.07;;
16784;SDS011;8509;52.178;5.404;2023-08-30T06:06:55;5.88;;;3.17;;
16784;SDS011;8509;52.178;5.404;2023-08-30T06:09:21;5.72;;;2.90;;
16784;SDS011;8509;52.178;5.404;2023-08-30T06:11:46;6.55;;;3.90;;
16784;SDS011;8509;52.178;5.404;2023-08-30T06:14:12;7.57;;;4.20;;
16784;SDS011;8509;52.178;5.404;2023-08-30T06:16:38;6.68;;;4.18;;
16784;SDS011;8509;52.178;5.404;2023-08-30T06:19:03;6.78;;;3.15;;
16784;SDS011;8509;52.178;5.404;2023-08-30T06:21:29;6.07;;;3.17;;
16784;SDS011;8509;52.178;5.404;2023-08-30T06:23:55;6.43;;;2.95;;
16784;SDS011;8509;52.178;5.404;2023-08-30T06:26:20;5.60;;;3.63;;
16784;SDS011;8509;52.178;5.404;2023-08-30T06:28:46;5.30;;;3.42;;
16784;SDS011;8509;52.178;5.404;2023-08-30T06:31:12;5.55;;;2.58;;
16784;SDS011;8509;52.178;5.404;2023-08-30T06:33:38;5.65;;;2.75;;
16784;SDS011;8509;52.178;5.404;2023-08-30T06:36:04;4.40;;;2.85;;
16784;SDS011;8509;52.178;5.404;2023-08-30T06:38:30;11.10;;;3.95;;
16784;SDS011;8509;52.178;5.404;2023-08-30T06:40:57;8.65;;;3.72;;
16784;SDS011;8509;52.178;5.404;2023-08-30T06:43:23;5.85;;;3.13;;
16784;SDS011;8509;52.178;5.404;2023-08-30T06:45:49;5.68;;;3.40;;
16784;SDS011;8509;52.178;5.404;2023-08-30T06:48:15;16.00;;;3.85;;
16784;SDS011;8509;52.178;5.404;2023-08-30T06:50:40;8.52;;;4.35;;
16784;SDS011;8509;52.178;5.404;2023-08-30T06:53:06;5.88;;;3.58;;
16784;SDS011;8509;52.178;5.404;2023-08-30T06:55:32;6.68;;;3.50;;
16784;SDS011;8509;52.178;5.404;2023-08-30T06:58:00;6.93;;;3.38;;
16784;SDS011;8509;52.178;5.404;2023-08-30T07:00:26;6.82;;;4.35;;
16784;SDS011;8509;52.178;5.404;2023-08-30T07:02:52;7.15;;;3.10;;
16784;SDS011;8509;52.178;5.404;2023-08-30T07:05:17;5.78;;;3.13;;
16784;SDS011;8509;52.178;5.404;2023-08-30T07:07:43;5.70;;;3.47;;
16784;SDS011;8509;52.178;5.404;2023-08-30T07:10:09;7.03;;;4.20;;
16784;SDS011;8509;52.178;5.404;2023-08-30T07:12:34;5.47;;;3.42;;
16784;SDS011;8509;52.178;5.404;2023-08-30T07:15:00;6.40;;;3.17;;
16784;SDS011;8509;52.178;5.404;2023-08-30T07:17:28;6.80;;;3.97;;
16784;SDS011;8509;52.178;5.404;2023-08-30T07:19:54;5.47;;;3.63;;
16784;SDS011;8509;52.178;5.404;2023-08-30T07:22:19;7.82;;;3.20;;
16784;SDS011;8509;52.178;5.404;2023-08-30T07:24:46;7.88;;;3.88;;
16784;SDS011;8509;52.178;5.404;2023-08-30T07:27:12;7.60;;;3.92;;
16784;SDS011;8509;52.178;5.404;2023-08-30T07:29:38;6.20;;;3.63;;
16784;SDS011;8509;52.178;5.404;2023-08-30T07:32:05;6.60;;;3.45;;
16784;SDS011;8509;52.178;5.404;2023-08-30T07:34:34;7.28;;;3.97;;
16784;SDS011;8509;52.178;5.404;2023-08-30T07:37:00;5.15;;;3.58;;
16784;SDS011;8509;52.178;5.404;2023-08-30T07:39:26;5.30;;;3.13;;
16784;SDS011;8509;52.178;5.404;2023-08-30T07:41:51;6.75;;;3.45;;
16784;SDS011;8509;52.178;5.404;2023-08-30T07:44:17;7.35;;;3.85;;
16784;SDS011;8509;52.178;5.404;2023-08-30T07:46:44;6.80;;;3.92;;
16784;SDS011;8509;52.178;5.404;2023-08-30T07:49:11;10.48;;;4.35;;
16784;SDS011;8509;52.178;5.404;2023-08-30T07:51:37;6.82;;;3.75;;
16784;SDS011;8509;52.178;5.404;2023-08-30T07:54:03;8.05;;;4.53;;
16784;SDS011;8509;52.178;5.404;2023-08-30T07:56:29;6.18;;;3.20;;
16784;SDS011;8509;52.178;5.404;2023-08-30T07:58:56;7.35;;;4.88;;
16784;SDS011;8509;52.178;5.404;2023-08-30T08:01:24;6.97;;;3.13;;
16784;SDS011;8509;52.178;5.404;2023-08-30T08:03:50;4.75;;;3.10;;
16784;SDS011;8509;52.178;5.404;2023-08-30T08:06:16;5.18;;;2.80;;
16784;SDS011;8509;52.178;5.404;2023-08-30T08:08:43;5.35;;;3.83;;
16784;SDS011;8509;52.178;5.404;2023-08-30T08:11:09;5.55;;;2.75;;
16784;SDS011;8509;52.178;5.404;2023-08-30T08:13:34;5.55;;;2.65;;
16784;SDS011;8509;52.178;5.404;2023-08-30T08:16:03;5.72;;;3.85;;
16784;SDS011;8509;52.178;5.404;2023-08-30T08:18:29;4.38;;;3.08;;
16784;SDS011;8509;52.178;5.404;2023-08-30T08:20:56;4.93;;;3.03;;
16784;SDS011;8509;52.178;5.404;2023-08-30T08:23:21;6.97;;;3.58;;
16784;SDS011;8509;52.178;5.404;2023-08-30T08:25:47;6.22;;;3.22;;
16784;SDS011;8509;52.178;5.404;2023-08-30T08:28:13;6.90;;;4.43;;
16784;SDS011;8509;52.178;5.404;2023-08-30T08:30:38;4.47;;;2.67;;
16784;SDS011;8509;52.178;5.404;2023-08-30T08:33:04;4.05;;;2.80;;
16784;SDS011;8509;52.178;5.404;2023-08-30T08:35:30;3.47;;;2.58;;
16784;SDS011;8509;52.178;5.404;2023-08-30T08:37:56;4.63;;;2.30;;
16784;SDS011;8509;52.178;5.404;2023-08-30T08:40:21;3.95;;;2.35;;
16784;SDS011;8509;52.178;5.404;2023-08-30T08:42:47;2.80;;;1.85;;
16784;SDS011;8509;52.178;5.404;2023-08-30T08:45:15;3.92;;;2.47;;
16784;SDS011;8509;52.178;5.404;2023-08-30T08:47:42;3.67;;;2.30;;
16784;SDS011;8509;52.178;5.404;2023-08-30T08:50:10;4.93;;;2.80;;
16784;SDS011;8509;52.178;5.404;2023-08-30T08:52:36;4.35;;;2.50;;
16784;SDS011;8509;52.178;5.404;2023-08-30T08:55:02;4.85;;;2.15;;
16784;SDS011;8509;52.178;5.404;2023-08-30T08:57:31;11.75;;;5.30;;
16784;SDS011;8509;52.178;5.404;2023-08-30T08:59:58;2.80;;;1.98;;
16784;SDS011;8509;52.178;5.404;2023-08-30T09:02:23;13.75;;;3.45;;
16784;SDS011;8509;52.178;5.404;2023-08-30T09:04:53;9.02;;;2.20;;
16784;SDS011;8509;52.178;5.404;2023-08-30T09:07:27;6.32;;;2.78;;
16784;SDS011;8509;52.178;5.404;2023-08-30T09:09:58;4.30;;;2.00;;
16784;SDS011;8509;52.178;5.404;2023-08-30T09:12:34;4.93;;;2.67;;
16784;SDS011;8509;52.178;5.404;2023-08-30T09:15:11;3.60;;;2.47;;
16784;SDS011;8509;52.178;5.404;2023-08-30T09:17:50;2.33;;;1.67;;
16784;SDS011;8509;52.178;5.404;2023-08-30T09:20:30;3.65;;;2.50;;
16784;SDS011;8509;52.178;5.404;2023-08-30T09:23:15;4.50;;;2.40;;
16784;SDS011;8509;52.178;5.404;2023-08-30T09:25:54;3.97;;;2.55;;
16784;SDS011;8509;52.178;5.404;2023-08-30T09:28:45;3.20;;;2.08;;
16784;SDS011;8509;52.178;5.404;2023-08-30T09:31:17;2.65;;;2.03;;
16784;SDS011;8509;52.178;5.404;2023-08-30T09:33:44;3.05;;;1.98;;
16784;SDS011;8509;52.178;5.404;2023-08-30T09:36:10;5.05;;;2.70;;
16784;SDS011;8509;52.178;5.404;2023-08-30T09:38:39;5.40;;;2.08;;
16784;SDS011;8509;52.178;5.404;2023-08-30T09:41:08;3.42;;;1.95;;
16784;SDS011;8509;52.178;5.404;2023-08-30T09:43:41;6.75;;;2.28;;
16784;SDS011;8509;52.178;5.404;2023-08-30T09:46:18;2.43;;;1.77;;
16784;SDS011;8509;52.178;5.404;2023-08-30T09:48:44;16.30;;;4.25;;
16784;SDS011;8509;52.178;5.404;2023-08-30T09:51:31;3.30;;;2.53;;
16784;SDS011;8509;52.178;5.404;2023-08-30T09:57:16;4.45;;;2.67;;
16784;SDS011;8509;52.178;5.404;2023-08-30T10:00:17;2.67;;;2.17;;
16784;SDS011;8509;52.178;5.404;2023-08-30T10:05:29;4.25;;;2.33;;
16784;SDS011;8509;52.178;5.404;2023-08-30T10:07:58;3.72;;;2.42;;
16784;SDS011;8509;52.178;5.404;2023-08-30T10:10:36;3.35;;;2.70;;
16784;SDS011;8509;52.178;5.404;2023-08-30T10:13:35;3.97;;;2.75;;
16784;SDS011;8509;52.178;5.404;2023-08-30T10:16:12;4.00;;;2.70;;
16784;SDS011;8509;52.178;5.404;2023-08-30T10:18:45;4.85;;;2.78;;
16784;SDS011;8509;52.178;5.404;2023-08-30T10:21:29;4.68;;;2.50;;
16784;SDS011;8509;52.178;5.404;2023-08-30T10:24:14;5.15;;;2.47;;
16784;SDS011;8509;52.178;5.404;2023-08-30T10:30:49;7.18;;;3.50;;
16784;SDS011;8509;52.178;5.404;2023-08-30T10:34:16;5.18;;;3.63;;
16784;SDS011;8509;52.178;5.404;2023-08-30T10:40:21;4.88;;;3.72;;
16784;SDS011;8509;52.178;5.404;2023-08-30T11:00:40;2.05;;;1.67;;
16784;SDS011;8509;52.178;5.404;2023-08-30T11:03:49;1.98;;;1.48;;
16784;SDS011;8509;52.178;5.404;2023-08-30T11:06:58;2.90;;;1.90;;
16784;SDS011;8509;52.178;5.404;2023-08-30T11:09:24;1.25;;;0.88;;
16784;SDS011;8509;52.178;5.404;2023-08-30T11:11:50;3.08;;;1.33;;
16784;SDS011;8509;52.178;5.404;2023-08-30T11:14:17;1.38;;;0.75;;
16784;SDS011;8509;52.178;5.404;2023-08-30T11:16:43;0.80;;;0.80;;
16784;SDS011;8509;52.178;5.404;2023-08-30T11:19:10;1.30;;;0.95;;
16784;SDS011;8509;52.178;5.404;2023-08-30T11:21:43;0.60;;;0.60;;
16784;SDS011;8509;52.178;5.404;2023-08-30T11:27:46;1.70;;;1.27;;
16784;SDS011;8509;52.178;5.404;2023-08-30T11:30:31;1.02;;;0.80;;
16784;SDS011;8509;52.178;5.404;2023-08-30T11:32:57;2.30;;;1.40;;
16784;SDS011;8509;52.178;5.404;2023-08-30T11:38:26;8.02;;;1.20;;
16784;SDS011;8509;52.178;5.404;2023-08-30T11:40:52;0.68;;;0.57;;
16784;SDS011;8509;52.178;5.404;2023-08-30T11:43:18;1.42;;;0.77;;
16784;SDS011;8509;52.178;5.404;2023-08-30T11:45:55;0.50;;;0.50;;
16784;SDS011;8509;52.178;5.404;2023-08-30T11:48:53;0.70;;;0.70;;
16784;SDS011;8509;52.178;5.404;2023-08-30T11:51:36;2.33;;;0.90;;
16784;SDS011;8509;52.178;5.404;2023-08-30T11:54:44;0.65;;;0.65;;
16784;SDS011;8509;52.178;5.404;2023-08-30T12:10:41;1.42;;;0.85;;
16784;SDS011;8509;52.178;5.404;2023-08-30T12:13:32;0.68;;;0.50;;
16784;SDS011;8509;52.178;5.404;2023-08-30T12:16:35;2.03;;;0.98;;
16784;SDS011;8509;52.178;5.404;2023-08-30T12:19:17;0.60;;;0.60;;
16784;SDS011;8509;52.178;5.404;2023-08-30T12:22:07;1.25;;;0.73;;
16784;SDS011;8509;52.178;5.404;2023-08-30T12:25:33;0.95;;;0.60;;
16784;SDS011;8509;52.178;5.404;2023-08-30T12:31:37;1.88;;;0.40;;
16784;SDS011;8509;52.178;5.404;2023-08-30T12:34:02;0.43;;;0.40;;
16784;SDS011;8509;52.178;5.404;2023-08-30T12:36:28;0.95;;;0.40;;
16784;SDS011;8509;52.178;5.404;2023-08-30T12:38:54;2.22;;;0.60;;
16784;SDS011;8509;52.178;5.404;2023-08-30T12:41:20;0.88;;;0.85;;
16784;SDS011;8509;52.178;5.404;2023-08-30T12:43:48;1.50;;;0.80;;
16784;SDS011;8509;52.178;5.404;2023-08-30T12:46:15;0.50;;;0.50;;
16784;SDS011;8509;52.178;5.404;2023-08-30T12:48:42;1.13;;;0.80;;
16784;SDS011;8509;52.178;5.404;2023-08-30T12:51:08;0.57;;;0.57;;
16784;SDS011;8509;52.178;5.404;2023-08-30T12:53:33;0.60;;;0.55;;
16784;SDS011;8509;52.178;5.404;2023-08-30T12:55:59;0.55;;;0.55;;
16784;SDS011;8509;52.178;5.404;2023-08-30T12:58:25;0.85;;;0.80;;
16784;SDS011;8509;52.178;5.404;2023-08-30T13:00:50;2.78;;;0.70;;
16784;SDS011;8509;52.178;5.404;2023-08-30T13:03:16;0.63;;;0.63;;
16784;SDS011;8509;52.178;5.404;2023-08-30T13:05:42;0.70;;;0.70;;
16784;SDS011;8509;52.178;5.404;2023-08-30T13:08:08;1.08;;;0.52;;
16784;SDS011;8509;52.178;5.404;2023-08-30T13:10:34;0.68;;;0.50;;
16784;SDS011;8509;52.178;5.404;2023-08-30T13:13:00;1.23;;;0.95;;
16784;SDS011;8509;52.178;5.404;2023-08-30T13:15:26;0.32;;;0.32;;
16784;SDS011;8509;52.178;5.404;2023-08-30T13:17:51;0.30;;;0.30;;
16784;SDS011;8509;52.178;5.404;2023-08-30T13:20:17;0.68;;;0.68;;
16784;SDS011;8509;52.178;5.404;2023-08-30T13:22:45;0.57;;;0.57;;
16784;SDS011;8509;52.178;5.404;2023-08-30T13:25:11;1.67;;;0.70;;
16784;SDS011;8509;52.178;5.404;2023-08-30T13:27:36;0.40;;;0.40;;
16784;SDS011;8509;52.178;5.404;2023-08-30T13:30:02;0.50;;;0.40;;
16784;SDS011;8509;52.178;5.404;2023-08-30T13:32:28;0.45;;;0.45;;
16784;SDS011;8509;52.178;5.404;2023-08-30T13:34:54;1.17;;;0.57;;
16784;SDS011;8509;52.178;5.404;2023-08-30T13:37:20;1.25;;;0.77;;
16784;SDS011;8509;52.178;5.404;2023-08-30T13:39:48;0.60;;;0.40;;
16784;SDS011;8509;52.178;5.404;2023-08-30T13:42:14;2.33;;;0.57;;
16784;SDS011;8509;52.178;5.404;2023-08-30T13:44:40;1.75;;;0.40;;
16784;SDS011;8509;52.178;5.404;2023-08-30T13:47:10;0.98;;;0.38;;
16784;SDS011;8509;52.178;5.404;2023-08-30T13:49:36;0.30;;;0.30;;
16784;SDS011;8509;52.178;5.404;2023-08-30T13:52:11;0.30;;;0.30;;
16784;SDS011;8509;52.178;5.404;2023-08-30T13:54:38;0.30;;;0.30;;
16784;SDS011;8509;52.178;5.404;2023-08-30T13:57:04;0.55;;;0.55;;
16784;SDS011;8509;52.178;5.404;2023-08-30T13:59:30;0.45;;;0.40;;
16784;SDS011;8509;52.178;5.404;2023-08-30T14:02:06;0.30;;;0.30;;
16784;SDS011;8509;52.178;5.404;2023-08-30T14:04:32;0.30;;;0.30;;
16784;SDS011;8509;52.178;5.404;2023-08-30T14:07:01;0.30;;;0.30;;
16784;SDS011;8509;52.178;5.404;2023-08-30T14:09:44;0.55;;;0.55;;
16784;SDS011;8509;52.178;5.404;2023-08-30T14:12:36;0.40;;;0.38;;
16784;SDS011;8509;52.178;5.404;2023-08-30T14:15:20;1.55;;;0.75;;
16784;SDS011;8509;52.178;5.404;2023-08-30T14:17:56;0.20;;;0.20;;
16784;SDS011;8509;52.178;5.404;2023-08-30T14:20:24;0.65;;;0.65;;
16784;SDS011;8509;52.178;5.404;2023-08-30T14:22:56;0.40;;;0.40;;
16784;SDS011;8509;52.178;5.404;2023-08-30T14:25:23;1.02;;;0.45;;
16784;SDS011;8509;52.178;5.404;2023-08-30T14:27:56;0.30;;;0.30;;
16784;SDS011;8509;52.178;5.404;2023-08-30T14:30:27;3.22;;;0.73;;
16784;SDS011;8509;52.178;5.404;2023-08-30T14:32:52;0.60;;;0.52;;
16784;SDS011;8509;52.178;5.404;2023-08-30T14:35:20;0.63;;;0.60;;
16784;SDS011;8509;52.178;5.404;2023-08-30T14:37:50;0.25;;;0.25;;
16784;SDS011;8509;52.178;5.404;2023-08-30T14:40:20;0.80;;;0.52;;
16784;SDS011;8509;52.178;5.404;2023-08-30T14:42:45;3.50;;;0.47;;
16784;SDS011;8509;52.178;5.404;2023-08-30T14:45:11;1.77;;;0.50;;
16784;SDS011;8509;52.178;5.404;2023-08-30T14:47:38;0.40;;;0.40;;
16784;SDS011;8509;52.178;5.404;2023-08-30T14:50:20;0.75;;;0.50;;
16784;SDS011;8509;52.178;5.404;2023-08-30T14:52:46;1.00;;;0.75;;
16784;SDS011;8509;52.178;5.404;2023-08-30T14:55:11;0.60;;;0.60;;
16784;SDS011;8509;52.178;5.404;2023-08-30T14:57:40;0.47;;;0.40;;
16784;SDS011;8509;52.178;5.404;2023-08-30T15:00:06;2.70;;;0.40;;
16784;SDS011;8509;52.178;5.404;2023-08-30T15:02:32;0.30;;;0.30;;
16784;SDS011;8509;52.178;5.404;2023-08-30T15:04:58;0.40;;;0.40;;
16784;SDS011;8509;52.178;5.404;2023-08-30T15:07:24;0.80;;;0.30;;
16784;SDS011;8509;52.178;5.404;2023-08-30T15:09:50;0.68;;;0.65;;
16784;SDS011;8509;52.178;5.404;2023-08-30T15:12:16;0.32;;;0.32;;
16784;SDS011;8509;52.178;5.404;2023-08-30T15:14:42;0.35;;;0.35;;
16784;SDS011;8509;52.178;5.404;2023-08-30T15:17:08;2.45;;;0.40;;
16784;SDS011;8509;52.178;5.404;2023-08-30T15:19:35;2.70;;;0.50;;
16784;SDS011;8509;52.178;5.404;2023-08-30T15:22:01;0.28;;;0.28;;
16784;SDS011;8509;52.178;5.404;2023-08-30T15:24:27;1.00;;;0.60;;
16784;SDS011;8509;52.178;5.404;2023-08-30T15:26:53;0.85;;;0.45;;
16784;SDS011;8509;52.178;5.404;2023-08-30T15:29:19;1.35;;;0.40;;
16784;SDS011;8509;52.178;5.404;2023-08-30T15:31:45;2.47;;;1.15;;
16784;SDS011;8509;52.178;5.404;2023-08-30T15:34:15;1.45;;;0.40;;
16784;SDS011;8509;52.178;5.404;2023-08-30T15:36:43;0.40;;;0.40;;
16784;SDS011;8509;52.178;5.404;2023-08-30T15:39:08;0.73;;;0.28;;
16784;SDS011;8509;52.178;5.404;2023-08-30T15:41:35;0.55;;;0.40;;
16784;SDS011;8509;52.178;5.404;2023-08-30T15:44:01;0.30;;;0.30;;
16784;SDS011;8509;52.178;5.404;2023-08-30T15:46:27;0.80;;;0.52;;
16784;SDS011;8509;52.178;5.404;2023-08-30T15:48:53;0.20;;;0.20;;
16784;SDS011;8509;52.178;5.404;2023-08-30T15:51:20;0.30;;;0.30;;
16784;SDS011;8509;52.178;5.404;2023-08-30T15:53:45;0.40;;;0.40;;
16784;SDS011;8509;52.178;5.404;2023-08-30T15:56:11;0.70;;;0.70;;
16784;SDS011;8509;52.178;5.404;2023-08-30T15:58:39;0.88;;;0.70;;
16784;SDS011;8509;52.178;5.404;2023-08-30T16:01:05;0.32;;;0.32;;
16784;SDS011;8509;52.178;5.404;2023-08-30T16:03:31;1.45;;;0.52;;
16784;SDS011;8509;52.178;5.404;2023-08-30T16:05:59;0.30;;;0.30;;
16784;SDS011;8509;52.178;5.404;2023-08-30T16:08:25;0.52;;;0.47;;
16784;SDS011;8509;52.178;5.404;2023-08-30T16:11:05;0.50;;;0.50;;
16784;SDS011;8509;52.178;5.404;2023-08-30T16:13:42;0.50;;;0.50;;